sensor_id;sensor_type;location;lat;lon;timestamp;pressure;altitude;pressure_sealevel;temperature;humidity
72116;BME280;59991;52.140;5.428;2023-04-01T00:00:17;99064.88;;;9.57;100.00
72116;BME280;59991;52.140;5.428;2023-04-01T00:00:49;99066.00;;;9.59;100.00
72116;BME280;59991;52.140;5.428;2023-04-01T00:01:21;99066.00;;;9.59;100.00
72116;BME280;59991;52.140;5.428;2023-04-01T00:01:52;99062.09;;;9.60;100.00
72116;BME280;59991;52.140;5.428;2023-04-01T00:02:23;99070.25;;;9.60;100.00
72116;BME280;59991;52.140;5.428;2023-04-01T00:02:55;99071.03;;;9.61;100.00
72116;BME280;59991;52.140;5.428;2023-04-01T00:03:28;99067.94;;;9.59;100.00
72116;BME280;59991;52.140;5.428;2023-04-01T00:04:00;99069.13;;;9.58;100.00
72116;BME280;59991;52.140;5.428;2023-04-01T00:04:33;99062.50;;;9.59;100.00
72116;BME280;59991;52.140;5.428;2023-04-01T00:05:05;99066.38;;;9.61;100.00
72116;BME280;59991;52.140;5.428;2023-04-01T00:05:37;99067.88;;;9.62;100.00
72116;BME280;59991;52.140;5.428;2023-04-01T00:06:12;99063.28;;;9.59;100.00
72116;BME280;59991;52.140;5.428;2023-04-01T00:06:44;99069.09;;;9.61;100.00
72116;BME280;59991;52.140;5.428;2023-04-01T00:07:15;99060.19;;;9.57;100.00
72116;BME280;59991;52.140;5.428;2023-04-01T00:07:47;99060.56;;;9.59;100.00
72116;BME280;59991;52.140;5.428;2023-04-01T00:08:18;99068.66;;;9.63;100.00
72116;BME280;59991;52.140;5.428;2023-04-01T00:08:50;99067.53;;;9.60;100.00
72116;BME280;59991;52.140;5.428;2023-04-01T00:09:21;99062.50;;;9.59;100.00
72116;BME280;59991;52.140;5.428;2023-04-01T00:09:53;99069.50;;;9.60;100.00
72116;BME280;59991;52.140;5.428;2023-04-01T00:10:24;99066.00;;;9.59;100.00
72116;BME280;59991;52.140;5.428;2023-04-01T00:10:56;99061.34;;;9.60;100.00
72116;BME280;59991;52.140;5.428;2023-04-01T00:11:28;99062.09;;;9.60;100.00
72116;BME280;59991;52.140;5.428;2023-04-01T00:11:59;99065.59;;;9.61;100.00
72116;BME280;59991;52.140;5.428;2023-04-01T00:12:31;99067.53;;;9.60;100.00
72116;BME280;59991;52.140;5.428;2023-04-01T00:13:02;99067.53;;;9.60;100.00
72116;BME280;59991;52.140;5.428;2023-04-01T00:13:34;99078.44;;;9.60;100.00
72116;BME280;59991;52.140;5.428;2023-04-01T00:14:06;99070.25;;;9.60;100.00
72116;BME280;59991;52.140;5.428;2023-04-01T00:14:38;99070.69;;;9.59;100.00
72116;BME280;59991;52.140;5.428;2023-04-01T00:15:11;99071.81;;;9.61;100.00
72116;BME280;59991;52.140;5.428;2023-04-01T00:15:43;99077.25;;;9.61;100.00
72116;BME280;59991;52.140;5.428;2023-04-01T00:16:16;99068.31;;;9.61;100.00
72116;BME280;59991;52.140;5.428;2023-04-01T00:16:52;99071.81;;;9.61;100.00
72116;BME280;59991;52.140;5.428;2023-04-01T00:17:24;99071.44;;;9.59;100.00
72116;BME280;59991;52.140;5.428;2023-04-01T00:17:56;99072.22;;;9.60;100.00
72116;BME280;59991;52.140;5.428;2023-04-01T00:18:27;99070.69;;;9.59;100.00
72116;BME280;59991;52.140;5.428;2023-04-01T00:18:59;99075.31;;;9.62;100.00
72116;BME280;59991;52.140;5.428;2023-04-01T00:19:31;99074.94;;;9.60;100.00
72116;BME280;59991;52.140;5.428;2023-04-01T00:20:04;99080.75;;;9.62;100.00
72116;BME280;59991;52.140;5.428;2023-04-01T00:20:36;99072.63;;;9.58;100.00
72116;BME280;59991;52.140;5.428;2023-04-01T00:21:08;99077.66;;;9.60;100.00
72116;BME280;59991;52.140;5.428;2023-04-01T00:21:39;99076.88;;;9.59;100.00
72116;BME280;59991;52.140;5.428;2023-04-01T00:22:11;99077.25;;;9.61;100.00
72116;BME280;59991;52.140;5.428;2023-04-01T00:22:42;99075.34;;;9.58;100.00
72116;BME280;59991;52.140;5.428;2023-04-01T00:23:15;99076.47;;;9.61;100.00
72116;BME280;59991;52.140;5.428;2023-04-01T00:23:46;99076.03;;;9.62;100.00
72116;BME280;59991;52.140;5.428;2023-04-01T00:24:18;99078.75;;;9.62;100.00
72116;BME280;59991;52.140;5.428;2023-04-01T00:24:50;99073.31;;;9.62;100.00
72116;BME280;59991;52.140;5.428;2023-04-01T00:25:22;99074.09;;;9.63;100.00
72116;BME280;59991;52.140;5.428;2023-04-01T00:25:53;99079.13;;;9.64;100.00
72116;BME280;59991;52.140;5.428;2023-04-01T00:26:24;99077.56;;;9.63;100.00
72116;BME280;59991;52.140;5.428;2023-04-01T00:26:57;99078.75;;;9.62;100.00
72116;BME280;59991;52.140;5.428;2023-04-01T00:27:29;99076.03;;;9.62;100.00
72116;BME280;59991;52.140;5.428;2023-04-01T00:28:00;99076.03;;;9.62;100.00
72116;BME280;59991;52.140;5.428;2023-04-01T00:28:34;99081.47;;;9.62;100.00
72116;BME280;59991;52.140;5.428;2023-04-01T00:29:07;99077.56;;;9.63;100.00
72116;BME280;59991;52.140;5.428;2023-04-01T00:29:45;99084.97;;;9.63;100.00
72116;BME280;59991;52.140;5.428;2023-04-01T00:30:17;99080.31;;;9.63;100.00
72116;BME280;59991;52.140;5.428;2023-04-01T00:30:49;99077.66;;;9.60;100.00
72116;BME280;59991;52.140;5.428;2023-04-01T00:31:20;99073.00;;;9.60;100.00
72116;BME280;59991;52.140;5.428;2023-04-01T00:31:52;99079.97;;;9.61;100.00
72116;BME280;59991;52.140;5.428;2023-04-01T00:32:23;99078.03;;;9.62;100.00
72116;BME280;59991;52.140;5.428;2023-04-01T00:32:55;99078.75;;;9.62;100.00
72116;BME280;59991;52.140;5.428;2023-04-01T00:33:27;99076.41;;;9.64;100.00
72116;BME280;59991;52.140;5.428;2023-04-01T00:33:58;99077.25;;;9.61;100.00
72116;BME280;59991;52.140;5.428;2023-04-01T00:34:30;99081.47;;;9.62;100.00
72116;BME280;59991;52.140;5.428;2023-04-01T00:35:02;99086.50;;;9.64;100.00
72116;BME280;59991;52.140;5.428;2023-04-01T00:35:34;99076.81;;;9.63;100.00
72116;BME280;59991;52.140;5.428;2023-04-01T00:36:38;99074.16;;;9.59;100.00
72116;BME280;59991;52.140;5.428;2023-04-01T00:37:09;99077.56;;;9.63;100.00
72116;BME280;59991;52.140;5.428;2023-04-01T00:37:41;99077.25;;;9.61;100.00
72116;BME280;59991;52.140;5.428;2023-04-01T00:38:12;99077.56;;;9.63;100.00
72116;BME280;59991;52.140;5.428;2023-04-01T00:38:44;99069.91;;;9.58;100.00
72116;BME280;59991;52.140;5.428;2023-04-01T00:39:16;99081.91;;;9.61;100.00
72116;BME280;59991;52.140;5.428;2023-04-01T00:39:47;99072.56;;;9.62;100.00
72116;BME280;59991;52.140;5.428;2023-04-01T00:40:40;99074.53;;;9.61;100.00
72116;BME280;59991;52.140;5.428;2023-04-01T00:41:14;99079.97;;;9.61;100.00
72116;BME280;59991;52.140;5.428;2023-04-01T00:41:47;99078.44;;;9.60;100.00
72116;BME280;59991;52.140;5.428;2023-04-01T00:42:19;99082.31;;;9.59;100.00
72116;BME280;59991;52.140;5.428;2023-04-01T00:42:51;99078.06;;;9.58;100.00
72116;BME280;59991;52.140;5.428;2023-04-01T00:43:22;99066.41;;;9.58;100.00
72116;BME280;59991;52.140;5.428;2023-04-01T00:44:23;99069.91;;;9.58;100.00
72116;BME280;59991;52.140;5.428;2023-04-01T00:44:55;99073.81;;;9.57;100.00
72116;BME280;59991;52.140;5.428;2023-04-01T00:45:37;99075.72;;;9.60;100.00
72116;BME280;59991;52.140;5.428;2023-04-01T00:46:09;99076.88;;;9.59;100.00
72116;BME280;59991;52.140;5.428;2023-04-01T00:46:40;99076.88;;;9.59;100.00
72116;BME280;59991;52.140;5.428;2023-04-01T00:47:12;99080.78;;;9.58;100.00
72116;BME280;59991;52.140;5.428;2023-04-01T00:47:43;99069.91;;;9.58;100.00
72116;BME280;59991;52.140;5.428;2023-04-01T00:48:55;99078.47;;;9.57;100.00
72116;BME280;59991;52.140;5.428;2023-04-01T00:49:37;99076.16;;;9.55;100.00
72116;BME280;59991;52.140;5.428;2023-04-01T00:50:10;99081.63;;;9.55;100.00
72116;BME280;59991;52.140;5.428;2023-04-01T00:50:45;99080.47;;;9.53;100.00
72116;BME280;59991;52.140;5.428;2023-04-01T00:51:21;99085.09;;;9.56;100.00
72116;BME280;59991;52.140;5.428;2023-04-01T00:51:57;99074.25;;;9.52;100.00
72116;BME280;59991;52.140;5.428;2023-04-01T00:52:31;99077.00;;;9.52;100.00
72116;BME280;59991;52.140;5.428;2023-04-01T00:53:04;99085.88;;;9.56;100.00
72116;BME280;59991;52.140;5.428;2023-04-01T00:53:40;99085.09;;;9.56;100.00
72116;BME280;59991;52.140;5.428;2023-04-01T00:54:14;99081.63;;;9.55;100.00
72116;BME280;59991;52.140;5.428;2023-04-01T00:54:50;99085.88;;;9.56;100.00
72116;BME280;59991;52.140;5.428;2023-04-01T00:55:25;99082.38;;;9.56;100.00
72116;BME280;59991;52.140;5.428;2023-04-01T00:56:13;99079.28;;;9.54;100.00
72116;BME280;59991;52.140;5.428;2023-04-01T00:56:52;99086.66;;;9.57;100.00
72116;BME280;59991;52.140;5.428;2023-04-01T00:57:31;99085.09;;;9.56;100.00
72116;BME280;59991;52.140;5.428;2023-04-01T00:58:09;99080.06;;;9.54;100.00
72116;BME280;59991;52.140;5.428;2023-04-01T00:58:47;99087.81;;;9.56;100.00
72116;BME280;59991;52.140;5.428;2023-04-01T00:59:23;99090.94;;;9.54;100.00
72116;BME280;59991;52.140;5.428;2023-04-01T00:59:55;99082.44;;;9.52;100.00
72116;BME280;59991;52.140;5.428;2023-04-01T01:00:27;99085.91;;;9.53;100.00
72116;BME280;59991;52.140;5.428;2023-04-01T01:00:59;99083.97;;;9.53;100.00
72116;BME280;59991;52.140;5.428;2023-04-01T01:01:32;99080.88;;;9.51;100.00
72116;BME280;59991;52.140;5.428;2023-04-01T01:02:07;99090.94;;;9.54;100.00
72116;BME280;59991;52.140;5.428;2023-04-01T01:02:41;99094.44;;;9.55;100.00
72116;BME280;59991;52.140;5.428;2023-04-01T01:03:14;99087.88;;;9.52;100.00
72116;BME280;59991;52.140;5.428;2023-04-01T01:03:45;99092.50;;;9.55;100.00
72116;BME280;59991;52.140;5.428;2023-04-01T01:04:26;99095.22;;;9.55;100.00
72116;BME280;59991;52.140;5.428;2023-04-01T01:04:58;99090.19;;;9.54;100.00
72116;BME280;59991;52.140;5.428;2023-04-01T01:07:02;99087.09;;;9.52;100.00
72116;BME280;59991;52.140;5.428;2023-04-01T01:07:55;99087.88;;;9.52;100.00
72116;BME280;59991;52.140;5.428;2023-04-01T01:09:02;99096.81;;;9.53;100.00
72116;BME280;59991;52.140;5.428;2023-04-01T01:10:33;99088.69;;;9.49;100.00
72116;BME280;59991;52.140;5.428;2023-04-01T01:11:06;99098.41;;;9.50;100.00
72116;BME280;59991;52.140;5.428;2023-04-01T01:11:43;99099.16;;;9.51;100.00
72116;BME280;59991;52.140;5.428;2023-04-01T01:12:20;99092.19;;;9.50;100.00
72116;BME280;59991;52.140;5.428;2023-04-01T01:13:36;99095.31;;;9.48;100.00
72116;BME280;59991;52.140;5.428;2023-04-01T01:14:25;99094.91;;;9.50;100.00
72116;BME280;59991;52.140;5.428;2023-04-01T01:15:17;99099.56;;;9.49;100.00
72116;BME280;59991;52.140;5.428;2023-04-01T01:16:10;99095.31;;;9.48;100.00
72116;BME280;59991;52.140;5.428;2023-04-01T01:16:50;99096.50;;;9.47;100.00
72116;BME280;59991;52.140;5.428;2023-04-01T01:17:44;99101.53;;;9.49;100.00
72116;BME280;59991;52.140;5.428;2023-04-01T01:19:16;99103.47;;;9.48;100.00
72116;BME280;59991;52.140;5.428;2023-04-01T01:22:23;99102.72;;;9.48;100.00
72116;BME280;59991;52.140;5.428;2023-04-01T01:23:32;99096.13;;;9.45;100.00
72116;BME280;59991;52.140;5.428;2023-04-01T01:24:13;99100.03;;;9.44;100.00
72116;BME280;59991;52.140;5.428;2023-04-01T01:25:00;99105.13;;;9.42;100.00
72116;BME280;59991;52.140;5.428;2023-04-01T01:26:08;99099.69;;;9.42;100.00
72116;BME280;59991;52.140;5.428;2023-04-01T01:26:48;99098.16;;;9.41;100.00
72116;BME280;59991;52.140;5.428;2023-04-01T01:27:22;99097.38;;;9.41;100.00
72116;BME280;59991;52.140;5.428;2023-04-01T01:30:28;99103.59;;;9.41;100.00
72116;BME280;59991;52.140;5.428;2023-04-01T01:31:21;99100.88;;;9.41;100.00
72116;BME280;59991;52.140;5.428;2023-04-01T01:32:06;99100.50;;;9.39;100.00
72116;BME280;59991;52.140;5.428;2023-04-01T01:33:01;99102.06;;;9.40;100.00
72116;BME280;59991;52.140;5.428;2023-04-01T01:33:52;99104.00;;;9.40;100.00
72116;BME280;59991;52.140;5.428;2023-04-01T01:35:05;99102.47;;;9.39;100.00
72116;BME280;59991;52.140;5.428;2023-04-01T01:35:40;99099.38;;;9.37;100.00
72116;BME280;59991;52.140;5.428;2023-04-01T01:36:15;99103.69;;;9.34;100.00
72116;BME280;59991;52.140;5.428;2023-04-01T01:36:56;99100.97;;;9.34;100.00
72116;BME280;59991;52.140;5.428;2023-04-01T01:37:29;99102.16;;;9.33;100.00
72116;BME280;59991;52.140;5.428;2023-04-01T01:38:08;99107.59;;;9.33;100.00
72116;BME280;59991;52.140;5.428;2023-04-01T01:38:41;99100.59;;;9.32;100.00
72116;BME280;59991;52.140;5.428;2023-04-01T01:39:13;99107.63;;;9.29;100.00
72116;BME280;59991;52.140;5.428;2023-04-01T01:39:50;99092.09;;;9.30;100.00
72116;BME280;59991;52.140;5.428;2023-04-01T01:40:24;99102.19;;;9.29;100.00
72116;BME280;59991;52.140;5.428;2023-04-01T01:40:57;99109.19;;;9.30;100.00
72116;BME280;59991;52.140;5.428;2023-04-01T01:41:31;99113.03;;;9.33;100.00
72116;BME280;59991;52.140;5.428;2023-04-01T01:42:06;99104.50;;;9.31;100.00
72116;BME280;59991;52.140;5.428;2023-04-01T01:42:43;99103.72;;;9.30;100.00
72116;BME280;59991;52.140;5.428;2023-04-01T01:43:21;99107.59;;;9.33;100.00
72116;BME280;59991;52.140;5.428;2023-04-01T01:43:56;99111.50;;;9.32;100.00
72116;BME280;59991;52.140;5.428;2023-04-01T01:44:29;99110.72;;;9.31;100.00
72116;BME280;59991;52.140;5.428;2023-04-01T01:45:03;99106.03;;;9.32;100.00
72116;BME280;59991;52.140;5.428;2023-04-01T01:45:40;99106.44;;;9.30;100.00
72116;BME280;59991;52.140;5.428;2023-04-01T01:46:22;99106.03;;;9.32;100.00
72116;BME280;59991;52.140;5.428;2023-04-01T01:46:56;99109.19;;;9.30;100.00
72116;BME280;59991;52.140;5.428;2023-04-01T01:47:28;99107.63;;;9.29;100.00
72116;BME280;59991;52.140;5.428;2023-04-01T01:48:02;99104.50;;;9.31;100.00
72116;BME280;59991;52.140;5.428;2023-04-01T01:48:35;99113.44;;;9.31;100.00
72116;BME280;59991;52.140;5.428;2023-04-01T01:49:10;99110.72;;;9.31;100.00
72116;BME280;59991;52.140;5.428;2023-04-01T01:49:43;99110.72;;;9.31;100.00
72116;BME280;59991;52.140;5.428;2023-04-01T01:50:16;99103.72;;;9.30;100.00
72116;BME280;59991;52.140;5.428;2023-04-01T01:50:49;99104.91;;;9.29;100.00
72116;BME280;59991;52.140;5.428;2023-04-01T01:51:21;99115.38;;;9.31;100.00
72116;BME280;59991;52.140;5.428;2023-04-01T01:51:53;99112.31;;;9.29;100.00
72116;BME280;59991;52.140;5.428;2023-04-01T01:52:27;99114.63;;;9.30;100.00
72116;BME280;59991;52.140;5.428;2023-04-01T01:53:07;99109.19;;;9.30;100.00
72116;BME280;59991;52.140;5.428;2023-04-01T01:53:39;99098.28;;;9.30;100.00
72116;BME280;59991;52.140;5.428;2023-04-01T01:54:13;99105.69;;;9.30;100.00
72116;BME280;59991;52.140;5.428;2023-04-01T01:54:52;99111.13;;;9.30;100.00
72116;BME280;59991;52.140;5.428;2023-04-01T01:55:31;99112.31;;;9.29;100.00
72116;BME280;59991;52.140;5.428;2023-04-01T01:56:04;99102.59;;;9.28;100.00
72116;BME280;59991;52.140;5.428;2023-04-01T01:56:35;99115.44;;;9.27;100.00
72116;BME280;59991;52.140;5.428;2023-04-01T01:57:09;99113.88;;;9.26;100.00
72116;BME280;59991;52.140;5.428;2023-04-01T01:57:44;99115.44;;;9.27;100.00
72116;BME280;59991;52.140;5.428;2023-04-01T01:58:20;99109.22;;;9.27;100.00
72116;BME280;59991;52.140;5.428;2023-04-01T01:59:00;99107.69;;;9.26;100.00
72116;BME280;59991;52.140;5.428;2023-04-01T01:59:36;99115.84;;;9.26;100.00
72116;BME280;59991;52.140;5.428;2023-04-01T02:00:10;99112.00;;;9.23;100.00
72116;BME280;59991;52.140;5.428;2023-04-01T02:00:50;99108.84;;;9.25;100.00
72116;BME280;59991;52.140;5.428;2023-04-01T02:01:27;99118.19;;;9.24;100.00
72116;BME280;59991;52.140;5.428;2023-04-01T02:02:00;99108.53;;;9.23;100.00
72116;BME280;59991;52.140;5.428;2023-04-01T02:02:42;99118.19;;;9.24;100.00
72116;BME280;59991;52.140;5.428;2023-04-01T02:03:17;99117.44;;;9.23;100.00
72116;BME280;59991;52.140;5.428;2023-04-01T02:03:50;99110.03;;;9.24;100.00
72116;BME280;59991;52.140;5.428;2023-04-01T02:04:22;99108.53;;;9.23;100.00
72116;BME280;59991;52.140;5.428;2023-04-01T02:04:54;99113.97;;;9.23;100.00
72116;BME280;59991;52.140;5.428;2023-04-01T02:05:27;99115.13;;;9.22;100.00
72116;BME280;59991;52.140;5.428;2023-04-01T02:06:04;99118.63;;;9.22;100.00
72116;BME280;59991;52.140;5.428;2023-04-01T02:06:41;99117.84;;;9.22;100.00
72116;BME280;59991;52.140;5.428;2023-04-01T02:07:20;99116.31;;;9.21;100.00
72116;BME280;59991;52.140;5.428;2023-04-01T02:08:05;99119.81;;;9.21;100.00
72116;BME280;59991;52.140;5.428;2023-04-01T02:08:42;99119.03;;;9.21;100.00
72116;BME280;59991;52.140;5.428;2023-04-01T02:09:15;99117.09;;;9.21;100.00
72116;BME280;59991;52.140;5.428;2023-04-01T02:09:47;99121.75;;;9.21;100.00
72116;BME280;59991;52.140;5.428;2023-04-01T02:10:21;99125.66;;;9.20;100.00
72116;BME280;59991;52.140;5.428;2023-04-01T02:11:00;99120.97;;;9.20;100.00
72116;BME280;59991;52.140;5.428;2023-04-01T02:11:36;99116.72;;;9.19;100.00
72116;BME280;59991;52.140;5.428;2023-04-01T02:12:11;99125.66;;;9.20;100.00
72116;BME280;59991;52.140;5.428;2023-04-01T02:12:45;99120.22;;;9.20;100.00
72116;BME280;59991;52.140;5.428;2023-04-01T02:13:34;99121.75;;;9.21;100.00
72116;BME280;59991;52.140;5.428;2023-04-01T02:14:15;99120.22;;;9.20;100.00
72116;BME280;59991;52.140;5.428;2023-04-01T02:14:54;99126.84;;;9.19;100.00
72116;BME280;59991;52.140;5.428;2023-04-01T02:15:30;99124.50;;;9.17;100.00
72116;BME280;59991;52.140;5.428;2023-04-01T02:16:13;99123.34;;;9.18;100.00
72116;BME280;59991;52.140;5.428;2023-04-01T02:17:26;99123.75;;;9.17;100.00
72116;BME280;59991;52.140;5.428;2023-04-01T02:17:59;99118.31;;;9.17;100.00
72116;BME280;59991;52.140;5.428;2023-04-01T02:18:33;99128.41;;;9.16;100.00
72116;BME280;59991;52.140;5.428;2023-04-01T02:19:07;99127.63;;;9.16;100.00
72116;BME280;59991;52.140;5.428;2023-04-01T02:19:47;99129.19;;;9.17;100.00
72116;BME280;59991;52.140;5.428;2023-04-01T02:20:22;99124.50;;;9.17;100.00
72116;BME280;59991;52.140;5.428;2023-04-01T02:20:56;99124.50;;;9.17;100.00
72116;BME280;59991;52.140;5.428;2023-04-01T02:21:31;99121.03;;;9.17;100.00
72116;BME280;59991;52.140;5.428;2023-04-01T02:22:07;99122.19;;;9.16;100.00
72116;BME280;59991;52.140;5.428;2023-04-01T02:22:43;99120.66;;;9.15;100.00
72116;BME280;59991;52.140;5.428;2023-04-01T02:23:16;99117.16;;;9.14;100.00
72116;BME280;59991;52.140;5.428;2023-04-01T02:23:48;99117.16;;;9.14;100.00
72116;BME280;59991;52.140;5.428;2023-04-01T02:24:21;99126.09;;;9.15;100.00
72116;BME280;59991;52.140;5.428;2023-04-01T02:24:58;99128.03;;;9.14;100.00
72116;BME280;59991;52.140;5.428;2023-04-01T02:25:35;99126.91;;;9.12;100.00
72116;BME280;59991;52.140;5.428;2023-04-01T02:26:09;99128.47;;;9.13;100.00
72116;BME280;59991;52.140;5.428;2023-04-01T02:26:41;99121.09;;;9.10;100.00
72116;BME280;59991;52.140;5.428;2023-04-01T02:27:13;99126.53;;;9.10;100.00
72116;BME280;59991;52.140;5.428;2023-04-01T02:27:45;99128.47;;;9.13;100.00
72116;BME280;59991;52.140;5.428;2023-04-01T02:28:18;99122.66;;;9.11;100.00
72116;BME280;59991;52.140;5.428;2023-04-01T02:28:52;99127.69;;;9.12;100.00
72116;BME280;59991;52.140;5.428;2023-04-01T02:29:25;99121.09;;;9.10;100.00
72116;BME280;59991;52.140;5.428;2023-04-01T02:29:57;99128.09;;;9.11;100.00
72116;BME280;59991;52.140;5.428;2023-04-01T02:30:29;99123.44;;;9.11;100.00
72116;BME280;59991;52.140;5.428;2023-04-01T02:31:03;99135.84;;;9.12;100.00
72116;BME280;59991;52.140;5.428;2023-04-01T02:31:35;99129.25;;;9.10;100.00
72116;BME280;59991;52.140;5.428;2023-04-01T02:32:08;99128.09;;;9.11;100.00
72116;BME280;59991;52.140;5.428;2023-04-01T02:32:41;99121.88;;;9.10;100.00
72116;BME280;59991;52.140;5.428;2023-04-01T02:33:13;99134.69;;;9.10;100.00
72116;BME280;59991;52.140;5.428;2023-04-01T02:33:45;99128.09;;;9.11;100.00
72116;BME280;59991;52.140;5.428;2023-04-01T02:34:18;99132.00;;;9.10;100.00
72116;BME280;59991;52.140;5.428;2023-04-01T02:34:50;99132.75;;;9.10;100.00
72116;BME280;59991;52.140;5.428;2023-04-01T02:35:23;99134.69;;;9.10;100.00
72116;BME280;59991;52.140;5.428;2023-04-01T02:35:57;99135.47;;;9.10;100.00
72116;BME280;59991;52.140;5.428;2023-04-01T02:36:29;99134.31;;;9.11;100.00
72116;BME280;59991;52.140;5.428;2023-04-01T02:37:00;99131.56;;;9.11;100.00
72116;BME280;59991;52.140;5.428;2023-04-01T02:37:32;99132.34;;;9.12;100.00
72116;BME280;59991;52.140;5.428;2023-04-01T02:38:06;99133.94;;;9.09;100.00
72116;BME280;59991;52.140;5.428;2023-04-01T02:38:38;99134.69;;;9.10;100.00
72116;BME280;59991;52.140;5.428;2023-04-01T02:39:10;99130.44;;;9.09;100.00
72116;BME280;59991;52.140;5.428;2023-04-01T02:39:42;99132.00;;;9.10;100.00
72116;BME280;59991;52.140;5.428;2023-04-01T02:40:15;99127.72;;;9.09;100.00
72116;BME280;59991;52.140;5.428;2023-04-01T02:40:56;99128.50;;;9.09;100.00
72116;BME280;59991;52.140;5.428;2023-04-01T02:41:28;99128.13;;;9.07;100.00
72116;BME280;59991;52.140;5.428;2023-04-01T02:41:59;99134.34;;;9.08;100.00
72116;BME280;59991;52.140;5.428;2023-04-01T02:42:32;99135.88;;;9.09;100.00
72116;BME280;59991;52.140;5.428;2023-04-01T02:43:03;99127.34;;;9.07;100.00
72116;BME280;59991;52.140;5.428;2023-04-01T02:43:35;99140.56;;;9.08;100.00
72116;BME280;59991;52.140;5.428;2023-04-01T02:44:06;99144.03;;;9.09;100.00
72116;BME280;59991;52.140;5.428;2023-04-01T02:44:38;99131.22;;;9.09;100.00
72116;BME280;59991;52.140;5.428;2023-04-01T02:45:10;99142.09;;;9.09;100.00
72116;BME280;59991;52.140;5.428;2023-04-01T02:45:43;99137.44;;;9.10;100.00
72116;BME280;59991;52.140;5.428;2023-04-01T02:46:14;99125.81;;;9.06;100.00
72116;BME280;59991;52.140;5.428;2023-04-01T02:46:46;99133.16;;;9.09;100.00
72116;BME280;59991;52.140;5.428;2023-04-01T02:47:17;99133.56;;;9.07;100.00
72116;BME280;59991;52.140;5.428;2023-04-01T02:47:49;99132.03;;;9.06;100.00
72116;BME280;59991;52.140;5.428;2023-04-01T02:48:20;99125.47;;;9.04;100.00
72116;BME280;59991;52.140;5.428;2023-04-01T02:48:52;99133.97;;;9.06;100.00
72116;BME280;59991;52.140;5.428;2023-04-01T02:49:23;99135.91;;;9.05;100.00
72116;BME280;59991;52.140;5.428;2023-04-01T02:49:54;99140.59;;;9.05;100.00
72116;BME280;59991;52.140;5.428;2023-04-01T02:50:30;99141.34;;;9.05;100.00
72116;BME280;59991;52.140;5.428;2023-04-01T02:51:01;99140.59;;;9.05;100.00
72116;BME280;59991;52.140;5.428;2023-04-01T02:51:33;99138.31;;;9.03;100.00
72116;BME280;59991;52.140;5.428;2023-04-01T02:52:05;99142.13;;;9.06;100.00
72116;BME280;59991;52.140;5.428;2023-04-01T02:52:36;99137.88;;;9.05;100.00
72116;BME280;59991;52.140;5.428;2023-04-01T02:53:07;99140.19;;;9.06;100.00
72116;BME280;59991;52.140;5.428;2023-04-01T02:53:39;99131.31;;;9.02;100.00
72116;BME280;59991;52.140;5.428;2023-04-01T02:54:11;99143.31;;;9.05;100.00
72116;BME280;59991;52.140;5.428;2023-04-01T02:54:42;99137.16;;;9.00;100.00
72116;BME280;59991;52.140;5.428;2023-04-01T02:55:13;99140.59;;;9.05;100.00
72116;BME280;59991;52.140;5.428;2023-04-01T02:55:45;99135.16;;;9.05;100.00
72116;BME280;59991;52.140;5.428;2023-04-01T02:56:16;99138.22;;;9.07;100.00
72116;BME280;59991;52.140;5.428;2023-04-01T02:56:48;99139.00;;;9.07;100.00
72116;BME280;59991;52.140;5.428;2023-04-01T02:57:20;99135.16;;;9.05;100.00
72116;BME280;59991;52.140;5.428;2023-04-01T02:57:52;99140.94;;;9.07;100.00
72116;BME280;59991;52.140;5.428;2023-04-01T02:58:23;99137.47;;;9.06;100.00
72116;BME280;59991;52.140;5.428;2023-04-01T02:58:54;99140.19;;;9.06;100.00
72116;BME280;59991;52.140;5.428;2023-04-01T02:59:26;99143.66;;;9.07;100.00
72116;BME280;59991;52.140;5.428;2023-04-01T02:59:57;99140.59;;;9.05;100.00
72116;BME280;59991;52.140;5.428;2023-04-01T03:00:29;99143.75;;;9.03;100.00
72116;BME280;59991;52.140;5.428;2023-04-01T03:01:01;99144.84;;;9.06;100.00
72116;BME280;59991;52.140;5.428;2023-04-01T03:01:32;99135.91;;;9.05;100.00
72116;BME280;59991;52.140;5.428;2023-04-01T03:02:04;99139.41;;;9.06;100.00
72116;BME280;59991;52.140;5.428;2023-04-01T03:02:35;99149.09;;;9.07;100.00
72116;BME280;59991;52.140;5.428;2023-04-01T03:03:08;99146.38;;;9.07;100.00
72116;BME280;59991;52.140;5.428;2023-04-01T03:03:40;99143.66;;;9.07;100.00
72116;BME280;59991;52.140;5.428;2023-04-01T03:04:12;99143.66;;;9.07;100.00
72116;BME280;59991;52.140;5.428;2023-04-01T03:04:43;99135.16;;;9.05;100.00
72116;BME280;59991;52.140;5.428;2023-04-01T03:05:15;99140.19;;;9.06;100.00
72116;BME280;59991;52.140;5.428;2023-04-01T03:05:46;99142.13;;;9.06;100.00
72116;BME280;59991;52.140;5.428;2023-04-01T03:06:18;99147.56;;;9.06;100.00
72116;BME280;59991;52.140;5.428;2023-04-01T03:06:49;99148.00;;;9.04;100.00
72116;BME280;59991;52.140;5.428;2023-04-01T03:07:21;99146.03;;;9.05;100.00
72116;BME280;59991;52.140;5.428;2023-04-01T03:07:52;99141.78;;;9.04;100.00
72116;BME280;59991;52.140;5.428;2023-04-01T03:08:24;99140.59;;;9.05;100.00
72116;BME280;59991;52.140;5.428;2023-04-01T03:08:55;99150.72;;;9.04;100.00
72116;BME280;59991;52.140;5.428;2023-04-01T03:09:27;99148.75;;;9.05;100.00
72116;BME280;59991;52.140;5.428;2023-04-01T03:09:59;99145.28;;;9.04;100.00
72116;BME280;59991;52.140;5.428;2023-04-01T03:10:31;99152.22;;;9.05;100.00
72116;BME280;59991;52.140;5.428;2023-04-01T03:11:02;99149.50;;;9.05;100.00
72116;BME280;59991;52.140;5.428;2023-04-01T03:11:34;99144.16;;;9.02;100.00
72116;BME280;59991;52.140;5.428;2023-04-01T03:12:06;99147.63;;;9.02;100.00
72116;BME280;59991;52.140;5.428;2023-04-01T03:12:38;99149.94;;;9.04;100.00
72116;BME280;59991;52.140;5.428;2023-04-01T03:13:09;99146.88;;;9.02;100.00
72116;BME280;59991;52.140;5.428;2023-04-01T03:13:41;99153.47;;;9.00;100.00
72116;BME280;59991;52.140;5.428;2023-04-01T03:14:12;99155.03;;;9.02;100.00
72116;BME280;59991;52.140;5.428;2023-04-01T03:14:44;99157.34;;;9.03;100.00